sensor_id;sensor_type;location;lat;lon;timestamp;noise_LAeq;noise_LA_min;noise_LA_max;noise_LA01;noise_LA95
38366;Laerm;943;51.568;6.998;2023-03-21T00:01:53;40.61;34.70;61.88;;
38366;Laerm;943;51.568;6.998;2023-03-21T00:04:25;39.95;35.15;51.06;;
38366;Laerm;943;51.568;6.998;2023-03-21T00:07:13;50.58;34.54;76.52;;
38366;Laerm;943;51.568;6.998;2023-03-21T00:09:41;40.18;34.87;52.86;;
38366;Laerm;943;51.568;6.998;2023-03-21T00:12:09;39.34;34.72;45.38;;
38366;Laerm;943;51.568;6.998;2023-03-21T00:14:38;40.39;35.29;52.59;;
38366;Laerm;943;51.568;6.998;2023-03-21T00:17:06;37.67;33.58;44.64;;
38366;Laerm;943;51.568;6.998;2023-03-21T00:19:34;40.54;35.06;47.41;;
38366;Laerm;943;51.568;6.998;2023-03-21T00:22:05;37.79;34.61;42.19;;
38366;Laerm;943;51.568;6.998;2023-03-21T00:24:36;40.73;35.83;48.47;;
38366;Laerm;943;51.568;6.998;2023-03-21T00:27:04;39.17;35.83;43.53;;
38366;Laerm;943;51.568;6.998;2023-03-21T00:29:54;37.98;33.56;43.54;;
38366;Laerm;943;51.568;6.998;2023-03-21T00:32:23;38.17;34.20;45.37;;
38366;Laerm;943;51.568;6.998;2023-03-21T00:34:51;39.58;34.69;45.93;;
38366;Laerm;943;51.568;6.998;2023-03-21T00:37:39;38.19;33.33;44.75;;
38366;Laerm;943;51.568;6.998;2023-03-21T00:40:11;37.90;33.68;42.82;;
38366;Laerm;943;51.568;6.998;2023-03-21T00:42:54;37.94;33.37;49.94;;
38366;Laerm;943;51.568;6.998;2023-03-21T00:45:21;37.39;33.95;40.81;;
38366;Laerm;943;51.568;6.998;2023-03-21T00:47:49;42.43;35.30;61.75;;
38366;Laerm;943;51.568;6.998;2023-03-21T00:50:17;43.93;33.87;60.21;;
38366;Laerm;943;51.568;6.998;2023-03-21T00:52:45;37.36;34.01;42.81;;
38366;Laerm;943;51.568;6.998;2023-03-21T00:55:18;38.70;34.41;44.51;;
38366;Laerm;943;51.568;6.998;2023-03-21T00:57:46;38.19;33.68;44.85;;
38366;Laerm;943;51.568;6.998;2023-03-21T01:00:28;40.77;34.55;59.51;;
38366;Laerm;943;51.568;6.998;2023-03-21T01:02:56;41.58;34.22;63.64;;
38366;Laerm;943;51.568;6.998;2023-03-21T01:05:45;38.22;35.14;43.89;;
38366;Laerm;943;51.568;6.998;2023-03-21T01:08:39;39.49;35.63;45.22;;
38366;Laerm;943;51.568;6.998;2023-03-21T01:11:26;37.31;33.32;50.72;;
38366;Laerm;943;51.568;6.998;2023-03-21T01:13:55;45.53;33.25;72.88;;
38366;Laerm;943;51.568;6.998;2023-03-21T01:16:38;41.98;33.96;68.71;;
38366;Laerm;943;51.568;6.998;2023-03-21T01:19:12;62.79;35.89;83.36;;
38366;Laerm;943;51.568;6.998;2023-03-21T01:21:56;38.71;34.16;52.62;;
38366;Laerm;943;51.568;6.998;2023-03-21T01:24:24;45.63;34.11;70.89;;
38366;Laerm;943;51.568;6.998;2023-03-21T01:26:52;38.14;33.30;55.65;;
38366;Laerm;943;51.568;6.998;2023-03-21T01:29:20;39.55;35.64;48.27;;
38366;Laerm;943;51.568;6.998;2023-03-21T01:31:48;52.44;33.39;76.90;;
38366;Laerm;943;51.568;6.998;2023-03-21T01:34:16;60.18;33.49;83.51;;
38366;Laerm;943;51.568;6.998;2023-03-21T01:36:44;46.13;34.10;71.61;;
38366;Laerm;943;51.568;6.998;2023-03-21T01:39:16;43.89;32.93;69.92;;
38366;Laerm;943;51.568;6.998;2023-03-21T01:41:47;49.27;34.67;68.16;;
38366;Laerm;943;51.568;6.998;2023-03-21T01:44:19;53.40;35.37;70.81;;
38366;Laerm;943;51.568;6.998;2023-03-21T01:46:52;55.92;36.65;78.40;;
38366;Laerm;943;51.568;6.998;2023-03-21T01:50:02;52.93;35.02;74.19;;
38366;Laerm;943;51.568;6.998;2023-03-21T01:52:42;52.96;34.32;72.24;;
38366;Laerm;943;51.568;6.998;2023-03-21T01:55:17;53.05;35.28;70.67;;
38366;Laerm;943;51.568;6.998;2023-03-21T01:58:10;52.56;34.43;71.26;;
38366;Laerm;943;51.568;6.998;2023-03-21T02:01:03;52.79;34.11;72.19;;
38366;Laerm;943;51.568;6.998;2023-03-21T02:03:51;48.62;33.70;69.21;;
38366;Laerm;943;51.568;6.998;2023-03-21T02:07:03;53.95;34.75;73.18;;
38366;Laerm;943;51.568;6.998;2023-03-21T02:09:45;53.33;34.42;71.12;;
38366;Laerm;943;51.568;6.998;2023-03-21T02:12:18;52.05;34.25;69.98;;
38366;Laerm;943;51.568;6.998;2023-03-21T02:14:53;43.43;33.99;59.12;;
38366;Laerm;943;51.568;6.998;2023-03-21T02:28:48;46.04;34.90;69.47;;
38366;Laerm;943;51.568;6.998;2023-03-21T02:35:32;52.91;35.43;70.54;;
38366;Laerm;943;51.568;6.998;2023-03-21T02:45:24;44.97;35.17;64.38;;
38366;Laerm;943;51.568;6.998;2023-03-21T02:48:44;53.48;35.36;72.36;;
38366;Laerm;943;51.568;6.998;2023-03-21T02:51:23;53.82;35.61;70.09;;
38366;Laerm;943;51.568;6.998;2023-03-21T02:54:05;50.80;36.19;70.94;;
38366;Laerm;943;51.568;6.998;2023-03-21T02:57:01;51.55;34.74;69.46;;
38366;Laerm;943;51.568;6.998;2023-03-21T02:59:34;63.32;35.93;83.97;;
38366;Laerm;943;51.568;6.998;2023-03-21T03:02:26;49.62;34.98;69.81;;
38366;Laerm;943;51.568;6.998;2023-03-21T03:04:54;53.01;36.35;70.90;;
38366;Laerm;943;51.568;6.998;2023-03-21T03:08:26;50.13;35.28;68.23;;
38366;Laerm;943;51.568;6.998;2023-03-21T03:11:34;48.27;35.59;63.97;;
38366;Laerm;943;51.568;6.998;2023-03-21T03:24:25;49.03;36.55;65.77;;
38366;Laerm;943;51.568;6.998;2023-03-21T03:27:37;48.76;36.96;66.05;;
38366;Laerm;943;51.568;6.998;2023-03-21T03:30:11;51.29;37.81;69.18;;
38366;Laerm;943;51.568;6.998;2023-03-21T03:32:58;49.76;38.72;66.34;;
38366;Laerm;943;51.568;6.998;2023-03-21T03:35:29;47.65;37.61;62.17;;
38366;Laerm;943;51.568;6.998;2023-03-21T03:38:05;48.50;36.81;63.48;;
38366;Laerm;943;51.568;6.998;2023-03-21T03:40:48;48.28;36.95;63.45;;
38366;Laerm;943;51.568;6.998;2023-03-21T03:43:58;47.70;38.13;62.08;;
38366;Laerm;943;51.568;6.998;2023-03-21T03:47:03;48.50;39.30;62.40;;
38366;Laerm;943;51.568;6.998;2023-03-21T03:56:39;48.94;39.92;62.97;;
38366;Laerm;943;51.568;6.998;2023-03-21T03:59:08;49.33;38.87;63.51;;
38366;Laerm;943;51.568;6.998;2023-03-21T04:01:54;48.91;40.30;62.54;;
38366;Laerm;943;51.568;6.998;2023-03-21T04:04:22;49.50;39.87;63.56;;
38366;Laerm;943;51.568;6.998;2023-03-21T04:06:56;50.94;41.11;66.22;;
38366;Laerm;943;51.568;6.998;2023-03-21T04:09:26;50.10;41.20;62.20;;
38366;Laerm;943;51.568;6.998;2023-03-21T04:12:12;52.39;40.83;69.06;;
38366;Laerm;943;51.568;6.998;2023-03-21T04:14:45;53.50;41.15;70.49;;
38366;Laerm;943;51.568;6.998;2023-03-21T04:17:18;54.05;41.17;69.87;;
38366;Laerm;943;51.568;6.998;2023-03-21T04:19:47;54.28;41.56;71.40;;
38366;Laerm;943;51.568;6.998;2023-03-21T04:22:24;54.26;41.52;70.66;;
38366;Laerm;943;51.568;6.998;2023-03-21T04:24:53;54.66;42.25;70.75;;
38366;Laerm;943;51.568;6.998;2023-03-21T04:27:21;54.90;41.97;71.33;;
38366;Laerm;943;51.568;6.998;2023-03-21T04:30:06;54.76;42.39;74.28;;
38366;Laerm;943;51.568;6.998;2023-03-21T04:32:46;54.83;41.95;71.09;;
38366;Laerm;943;51.568;6.998;2023-03-21T04:35:24;53.75;42.45;68.36;;
38366;Laerm;943;51.568;6.998;2023-03-21T04:37:53;55.20;42.38;70.64;;
38366;Laerm;943;51.568;6.998;2023-03-21T04:40:22;55.05;42.25;71.61;;
38366;Laerm;943;51.568;6.998;2023-03-21T04:42:54;53.05;41.69;69.90;;
38366;Laerm;943;51.568;6.998;2023-03-21T04:45:23;55.01;43.09;70.83;;
38366;Laerm;943;51.568;6.998;2023-03-21T04:47:51;53.08;42.98;69.60;;
38366;Laerm;943;51.568;6.998;2023-03-21T04:50:19;62.55;43.36;76.16;;
38366;Laerm;943;51.568;6.998;2023-03-21T04:52:47;60.10;42.67;75.55;;
38366;Laerm;943;51.568;6.998;2023-03-21T04:55:15;51.16;43.12;66.17;;
38366;Laerm;943;51.568;6.998;2023-03-21T04:57:45;52.52;41.75;65.29;;
38366;Laerm;943;51.568;6.998;2023-03-21T05:00:14;52.00;41.80;65.65;;
38366;Laerm;943;51.568;6.998;2023-03-21T05:02:42;53.56;42.13;65.17;;
38366;Laerm;943;51.568;6.998;2023-03-21T05:05:11;57.32;42.68;73.44;;
38366;Laerm;943;51.568;6.998;2023-03-21T05:07:41;57.56;43.88;72.22;;
38366;Laerm;943;51.568;6.998;2023-03-21T05:10:11;58.30;42.95;69.41;;
38366;Laerm;943;51.568;6.998;2023-03-21T05:12:40;53.31;42.95;67.08;;
38366;Laerm;943;51.568;6.998;2023-03-21T05:15:09;51.42;43.43;62.76;;
38366;Laerm;943;51.568;6.998;2023-03-21T05:17:37;53.49;42.72;70.53;;
38366;Laerm;943;51.568;6.998;2023-03-21T05:20:06;57.98;43.47;73.33;;
38366;Laerm;943;51.568;6.998;2023-03-21T05:22:36;58.58;42.82;69.81;;
38366;Laerm;943;51.568;6.998;2023-03-21T05:25:11;52.55;42.43;67.31;;
38366;Laerm;943;51.568;6.998;2023-03-21T05:28:07;51.72;42.15;68.95;;
38366;Laerm;943;51.568;6.998;2023-03-21T05:30:35;52.64;42.11;69.40;;
38366;Laerm;943;51.568;6.998;2023-03-21T05:33:04;48.34;42.33;67.34;;
38366;Laerm;943;51.568;6.998;2023-03-21T05:35:32;48.88;42.52;62.23;;
38366;Laerm;943;51.568;6.998;2023-03-21T05:38:03;54.71;43.19;70.98;;
38366;Laerm;943;51.568;6.998;2023-03-21T05:40:38;56.68;42.97;71.31;;
38366;Laerm;943;51.568;6.998;2023-03-21T05:43:06;51.15;43.41;64.60;;
38366;Laerm;943;51.568;6.998;2023-03-21T05:45:34;50.05;43.66;64.50;;
38366;Laerm;943;51.568;6.998;2023-03-21T05:48:03;60.77;43.01;80.61;;
38366;Laerm;943;51.568;6.998;2023-03-21T05:50:39;58.98;43.21;77.81;;
38366;Laerm;943;51.568;6.998;2023-03-21T05:53:12;59.18;43.60;77.12;;
38366;Laerm;943;51.568;6.998;2023-03-21T05:55:40;50.21;43.00;68.20;;
38366;Laerm;943;51.568;6.998;2023-03-21T05:58:14;50.27;42.61;69.07;;
38366;Laerm;943;51.568;6.998;2023-03-21T06:00:47;53.02;43.43;71.65;;
38366;Laerm;943;51.568;6.998;2023-03-21T06:03:24;53.65;43.29;77.06;;
38366;Laerm;943;51.568;6.998;2023-03-21T06:06:05;54.50;44.28;73.12;;
38366;Laerm;943;51.568;6.998;2023-03-21T06:08:43;51.80;44.93;68.56;;
38366;Laerm;943;51.568;6.998;2023-03-21T06:11:35;50.76;44.23;62.25;;
38366;Laerm;943;51.568;6.998;2023-03-21T06:14:24;52.41;44.50;71.38;;
38366;Laerm;943;51.568;6.998;2023-03-21T06:17:12;49.83;44.68;62.52;;
38366;Laerm;943;51.568;6.998;2023-03-21T06:19:48;55.18;44.99;73.49;;
38366;Laerm;943;51.568;6.998;2023-03-21T06:22:22;54.38;45.65;73.53;;
38366;Laerm;943;51.568;6.998;2023-03-21T06:24:50;52.56;44.52;69.85;;
38366;Laerm;943;51.568;6.998;2023-03-21T06:27:18;56.99;45.83;70.01;;
38366;Laerm;943;51.568;6.998;2023-03-21T06:29:52;52.55;45.25;70.48;;
38366;Laerm;943;51.568;6.998;2023-03-21T06:32:21;50.66;44.88;64.47;;
38366;Laerm;943;51.568;6.998;2023-03-21T06:34:55;51.08;45.37;65.61;;
38366;Laerm;943;51.568;6.998;2023-03-21T06:37:23;50.97;44.83;72.37;;
38366;Laerm;943;51.568;6.998;2023-03-21T06:39:53;51.62;45.37;67.32;;
38366;Laerm;943;51.568;6.998;2023-03-21T06:42:22;54.57;44.73;70.93;;
38366;Laerm;943;51.568;6.998;2023-03-21T06:44:55;55.24;44.77;71.26;;
38366;Laerm;943;51.568;6.998;2023-03-21T06:47:23;52.32;45.07;72.26;;
38366;Laerm;943;51.568;6.998;2023-03-21T06:49:51;50.44;45.17;63.40;;
38366;Laerm;943;51.568;6.998;2023-03-21T06:52:19;51.50;45.23;64.06;;
38366;Laerm;943;51.568;6.998;2023-03-21T06:54:47;50.84;44.31;63.66;;
38366;Laerm;943;51.568;6.998;2023-03-21T06:57:16;51.04;44.95;64.02;;
38366;Laerm;943;51.568;6.998;2023-03-21T06:59:44;52.36;45.49;69.25;;
38366;Laerm;943;51.568;6.998;2023-03-21T07:02:19;51.46;45.54;66.04;;
38366;Laerm;943;51.568;6.998;2023-03-21T07:05:00;50.06;46.40;64.31;;
38366;Laerm;943;51.568;6.998;2023-03-21T07:07:29;49.13;45.32;60.44;;
38366;Laerm;943;51.568;6.998;2023-03-21T07:10:03;49.13;45.41;61.23;;
38366;Laerm;943;51.568;6.998;2023-03-21T07:12:39;50.42;45.71;68.22;;
38366;Laerm;943;51.568;6.998;2023-03-21T07:15:20;56.15;44.88;81.37;;
38366;Laerm;943;51.568;6.998;2023-03-21T07:17:50;55.12;44.54;79.44;;
38366;Laerm;943;51.568;6.998;2023-03-21T07:20:18;53.35;44.68;69.47;;
38366;Laerm;943;51.568;6.998;2023-03-21T07:22:46;53.82;44.82;72.22;;
38366;Laerm;943;51.568;6.998;2023-03-21T07:25:13;52.79;44.45;72.28;;
38366;Laerm;943;51.568;6.998;2023-03-21T07:27:43;52.46;43.27;67.99;;
38366;Laerm;943;51.568;6.998;2023-03-21T07:30:14;50.82;44.04;65.55;;
38366;Laerm;943;51.568;6.998;2023-03-21T07:32:43;53.12;44.36;69.63;;
38366;Laerm;943;51.568;6.998;2023-03-21T07:35:16;53.61;44.00;67.86;;
38366;Laerm;943;51.568;6.998;2023-03-21T07:37:44;52.06;43.61;76.51;;
38366;Laerm;943;51.568;6.998;2023-03-21T07:40:16;51.79;44.56;72.21;;
38366;Laerm;943;51.568;6.998;2023-03-21T07:42:47;52.41;44.89;68.17;;
38366;Laerm;943;51.568;6.998;2023-03-21T07:45:26;51.04;45.08;66.68;;
38366;Laerm;943;51.568;6.998;2023-03-21T07:47:54;51.85;45.46;68.06;;
38366;Laerm;943;51.568;6.998;2023-03-21T07:50:23;51.53;44.50;68.64;;
38366;Laerm;943;51.568;6.998;2023-03-21T07:52:51;50.91;43.82;66.64;;
38366;Laerm;943;51.568;6.998;2023-03-21T07:55:20;49.09;43.16;69.35;;
38366;Laerm;943;51.568;6.998;2023-03-21T07:57:52;49.11;43.00;69.06;;
38366;Laerm;943;51.568;6.998;2023-03-21T08:00:21;49.26;43.94;65.93;;
38366;Laerm;943;51.568;6.998;2023-03-21T08:02:56;58.95;43.72;78.46;;
38366;Laerm;943;51.568;6.998;2023-03-21T08:05:33;52.22;42.67;74.11;;
38366;Laerm;943;51.568;6.998;2023-03-21T08:08:04;49.91;44.08;66.57;;
38366;Laerm;943;51.568;6.998;2023-03-21T08:10:33;54.21;43.44;71.21;;
38366;Laerm;943;51.568;6.998;2023-03-21T08:13:02;56.75;43.55;73.92;;
38366;Laerm;943;51.568;6.998;2023-03-21T08:15:30;61.02;42.33;78.77;;
38366;Laerm;943;51.568;6.998;2023-03-21T08:17:59;60.02;42.46;76.01;;
38366;Laerm;943;51.568;6.998;2023-03-21T08:20:27;51.94;42.46;69.81;;
38366;Laerm;943;51.568;6.998;2023-03-21T08:22:55;48.44;41.94;66.25;;
38366;Laerm;943;51.568;6.998;2023-03-21T08:25:24;48.24;41.72;71.83;;
38366;Laerm;943;51.568;6.998;2023-03-21T08:27:52;50.92;41.95;76.81;;
38366;Laerm;943;51.568;6.998;2023-03-21T08:30:25;51.18;42.75;68.10;;
38366;Laerm;943;51.568;6.998;2023-03-21T08:33:00;55.65;42.17;73.93;;
38366;Laerm;943;51.568;6.998;2023-03-21T08:35:29;54.03;42.33;71.14;;
38366;Laerm;943;51.568;6.998;2023-03-21T08:37:58;51.95;42.55;69.62;;
38366;Laerm;943;51.568;6.998;2023-03-21T08:40:25;49.57;42.81;65.17;;
38366;Laerm;943;51.568;6.998;2023-03-21T08:42:54;48.35;42.24;66.25;;
38366;Laerm;943;51.568;6.998;2023-03-21T08:45:22;46.98;42.53;61.33;;
38366;Laerm;943;51.568;6.998;2023-03-21T08:47:51;47.01;42.57;56.30;;
38366;Laerm;943;51.568;6.998;2023-03-21T08:50:24;49.29;43.08;67.50;;
38366;Laerm;943;51.568;6.998;2023-03-21T08:52:52;55.19;43.05;70.81;;
38366;Laerm;943;51.568;6.998;2023-03-21T08:55:21;50.50;43.15;69.00;;
38366;Laerm;943;51.568;6.998;2023-03-21T08:57:48;65.24;42.79;90.91;;
38366;Laerm;943;51.568;6.998;2023-03-21T09:00:17;52.71;43.56;74.24;;
38366;Laerm;943;51.568;6.998;2023-03-21T09:02:49;51.81;43.08;74.14;;
38366;Laerm;943;51.568;6.998;2023-03-21T09:05:20;53.66;44.17;77.08;;
38366;Laerm;943;51.568;6.998;2023-03-21T09:07:49;48.74;43.06;64.79;;
38366;Laerm;943;51.568;6.998;2023-03-21T09:10:22;60.19;41.88;83.52;;
38366;Laerm;943;51.568;6.998;2023-03-21T09:12:54;58.06;41.75;79.73;;
38366;Laerm;943;51.568;6.998;2023-03-21T09:15:26;56.44;43.88;78.01;;
38366;Laerm;943;51.568;6.998;2023-03-21T09:17:58;53.41;42.42;74.45;;
38366;Laerm;943;51.568;6.998;2023-03-21T09:20:43;51.77;42.77;69.06;;
38366;Laerm;943;51.568;6.998;2023-03-21T09:23:14;55.56;42.44;78.51;;
38366;Laerm;943;51.568;6.998;2023-03-21T09:25:45;58.52;42.26;84.93;;
38366;Laerm;943;51.568;6.998;2023-03-21T09:28:14;59.16;42.46;84.61;;
38366;Laerm;943;51.568;6.998;2023-03-21T09:30:42;49.72;43.68;76.40;;
38366;Laerm;943;51.568;6.998;2023-03-21T09:33:11;56.43;45.13;81.39;;
38366;Laerm;943;51.568;6.998;2023-03-21T09:35:47;49.74;44.91;66.50;;
38366;Laerm;943;51.568;6.998;2023-03-21T09:38:18;52.42;45.19;74.62;;
38366;Laerm;943;51.568;6.998;2023-03-21T09:41:40;62.52;43.98;86.82;;
38366;Laerm;943;51.568;6.998;2023-03-21T09:45:18;50.87;44.09;69.41;;
38366;Laerm;943;51.568;6.998;2023-03-21T09:47:50;50.51;44.41;64.93;;
38366;Laerm;943;51.568;6.998;2023-03-21T09:50:34;53.64;44.31;78.15;;
38366;Laerm;943;51.568;6.998;2023-03-21T09:53:40;49.10;43.55;67.96;;
38366;Laerm;943;51.568;6.998;2023-03-21T09:56:11;55.26;44.24;77.81;;
38366;Laerm;943;51.568;6.998;2023-03-21T09:58:51;52.44;44.60;68.41;;
38366;Laerm;943;51.568;6.998;2023-03-21T10:01:31;52.24;43.98;72.73;;
38366;Laerm;943;51.568;6.998;2023-03-21T10:04:15;49.02;42.57;67.40;;
38366;Laerm;943;51.568;6.998;2023-03-21T10:06:59;50.86;43.33;70.26;;
38366;Laerm;943;51.568;6.998;2023-03-21T10:09:32;50.92;43.88;70.62;;
38366;Laerm;943;51.568;6.998;2023-03-21T10:12:20;50.87;44.22;76.98;;
38366;Laerm;943;51.568;6.998;2023-03-21T10:14:56;60.13;43.57;84.01;;
38366;Laerm;943;51.568;6.998;2023-03-21T10:17:39;56.70;43.61;77.60;;
38366;Laerm;943;51.568;6.998;2023-03-21T10:20:16;53.87;44.49;79.63;;
38366;Laerm;943;51.568;6.998;2023-03-21T10:22:50;48.01;42.31;59.99;;
38366;Laerm;943;51.568;6.998;2023-03-21T10:25:53;59.03;42.70;82.63;;
38366;Laerm;943;51.568;6.998;2023-03-21T10:28:31;51.66;43.38;68.64;;
38366;Laerm;943;51.568;6.998;2023-03-21T10:31:27;70.52;43.16;92.42;;
38366;Laerm;943;51.568;6.998;2023-03-21T10:34:17;47.87;43.10;66.79;;
38366;Laerm;943;51.568;6.998;2023-03-21T10:36:47;54.41;43.54;77.91;;
38366;Laerm;943;51.568;6.998;2023-03-21T10:41:59;49.94;43.65;69.08;;
38366;Laerm;943;51.568;6.998;2023-03-21T10:44:34;48.90;43.39;72.51;;
38366;Laerm;943;51.568;6.998;2023-03-21T10:47:08;51.85;43.77;70.92;;
38366;Laerm;943;51.568;6.998;2023-03-21T10:49:38;50.36;44.03;64.21;;
38366;Laerm;943;51.568;6.998;2023-03-21T10:52:29;55.84;44.55;76.15;;
38366;Laerm;943;51.568;6.998;2023-03-21T10:55:30;55.92;43.73;74.63;;
38366;Laerm;943;51.568;6.998;2023-03-21T10:58:14;52.94;44.03;69.17;;
38366;Laerm;943;51.568;6.998;2023-03-21T11:00:46;54.72;45.33;72.89;;
38366;Laerm;943;51.568;6.998;2023-03-21T11:03:32;49.48;45.39;62.87;;
38366;Laerm;943;51.568;6.998;2023-03-21T11:06:22;52.13;44.88;71.10;;
38366;Laerm;943;51.568;6.998;2023-03-21T11:09:13;53.47;44.93;69.27;;
38366;Laerm;943;51.568;6.998;2023-03-21T11:12:09;53.63;44.07;68.39;;
38366;Laerm;943;51.568;6.998;2023-03-21T11:14:49;52.14;43.71;67.96;;
38366;Laerm;943;51.568;6.998;2023-03-21T11:20:02;50.03;43.20;73.25;;
38366;Laerm;943;51.568;6.998;2023-03-21T11:22:42;49.04;44.45;64.78;;
38366;Laerm;943;51.568;6.998;2023-03-21T11:25:35;51.16;42.50;69.82;;
38366;Laerm;943;51.568;6.998;2023-03-21T11:28:32;49.90;42.32;72.33;;
38366;Laerm;943;51.568;6.998;2023-03-21T11:31:03;47.36;42.57;62.96;;
38366;Laerm;943;51.568;6.998;2023-03-21T11:33:52;49.98;42.86;70.73;;
38366;Laerm;943;51.568;6.998;2023-03-21T11:38:59;49.28;42.81;65.26;;
38366;Laerm;943;51.568;6.998;2023-03-21T11:41:34;51.26;42.71;72.69;;
38366;Laerm;943;51.568;6.998;2023-03-21T11:44:04;46.66;43.10;53.77;;
38366;Laerm;943;51.568;6.998;2023-03-21T11:46:40;48.61;43.12;61.55;;
38366;Laerm;943;51.568;6.998;2023-03-21T11:49:09;52.81;43.00;70.11;;
38366;Laerm;943;51.568;6.998;2023-03-21T11:51:58;49.63;42.45;67.38;;
38366;Laerm;943;51.568;6.998;2023-03-21T11:55:14;50.62;43.18;66.58;;
38366;Laerm;943;51.568;6.998;2023-03-21T12:05:25;48.84;42.03;68.47;;
38366;Laerm;943;51.568;6.998;2023-03-21T12:12:26;48.03;42.28;64.02;;
38366;Laerm;943;51.568;6.998;2023-03-21T12:15:32;48.39;42.46;67.13;;
38366;Laerm;943;51.568;6.998;2023-03-21T12:19:00;52.37;41.60;80.86;;
38366;Laerm;943;51.568;6.998;2023-03-21T12:24:56;51.67;43.02;69.69;;
38366;Laerm;943;51.568;6.998;2023-03-21T12:28:00;48.96;42.21;69.31;;
38366;Laerm;943;51.568;6.998;2023-03-21T12:35:23;50.99;42.76;70.27;;
38366;Laerm;943;51.568;6.998;2023-03-21T12:41:41;49.68;42.50;69.76;;
38366;Laerm;943;51.568;6.998;2023-03-21T12:44:20;52.08;42.93;70.78;;
38366;Laerm;943;51.568;6.998;2023-03-21T12:47:16;49.75;42.76;69.38;;
38366;Laerm;943;51.568;6.998;2023-03-21T12:49:57;55.67;41.74;71.94;;
38366;Laerm;943;51.568;6.998;2023-03-21T12:52:43;51.30;43.04;67.01;;
38366;Laerm;943;51.568;6.998;2023-03-21T12:55:27;48.25;42.88;66.07;;
38366;Laerm;943;51.568;6.998;2023-03-21T12:58:12;47.13;41.65;61.74;;
38366;Laerm;943;51.568;6.998;2023-03-21T13:00:59;48.50;42.64;60.89;;
38366;Laerm;943;51.568;6.998;2023-03-21T13:03:43;49.18;42.85;65.30;;
38366;Laerm;943;51.568;6.998;2023-03-21T13:06:16;49.79;42.61;68.84;;
38366;Laerm;943;51.568;6.998;2023-03-21T13:09:48;46.68;42.19;65.62;;
38366;Laerm;943;51.568;6.998;2023-03-21T13:15:59;53.45;42.49;72.98;;
38366;Laerm;943;51.568;6.998;2023-03-21T13:19:02;47.70;41.92;65.75;;
38366;Laerm;943;51.568;6.998;2023-03-21T13:22:06;56.24;43.55;73.32;;
38366;Laerm;943;51.568;6.998;2023-03-21T13:25:22;48.83;42.29;65.95;;
38366;Laerm;943;51.568;6.998;2023-03-21T13:28:03;48.84;42.69;65.09;;
38366;Laerm;943;51.568;6.998;2023-03-21T13:30:32;59.37;43.19;77.83;;
38366;Laerm;943;51.568;6.998;2023-03-21T13:33:28;61.77;42.08;81.60;;
38366;Laerm;943;51.568;6.998;2023-03-21T13:36:26;57.59;41.61;75.33;;
38366;Laerm;943;51.568;6.998;2023-03-21T13:39:04;51.72;43.17;68.99;;
38366;Laerm;943;51.568;6.998;2023-03-21T13:41:42;49.00;42.15;71.49;;
38366;Laerm;943;51.568;6.998;2023-03-21T13:44:43;46.24;41.47;66.70;;
38366;Laerm;943;51.568;6.998;2023-03-21T13:47:49;46.61;41.85;66.64;;
38366;Laerm;943;51.568;6.998;2023-03-21T13:50:29;49.35;41.14;67.93;;
38366;Laerm;943;51.568;6.998;2023-03-21T13:53:22;47.45;42.05;66.78;;
38366;Laerm;943;51.568;6.998;2023-03-21T13:56:22;48.48;42.01;66.92;;
38366;Laerm;943;51.568;6.998;2023-03-21T13:58:59;47.43;43.04;59.58;;
38366;Laerm;943;51.568;6.998;2023-03-21T14:02:22;48.11;42.48;62.76;;
38366;Laerm;943;51.568;6.998;2023-03-21T14:05:23;53.13;42.71;70.47;;
38366;Laerm;943;51.568;6.998;2023-03-21T14:08:07;50.19;43.08;62.10;;
38366;Laerm;943;51.568;6.998;2023-03-21T14:10:56;52.85;43.99;66.95;;
38366;Laerm;943;51.568;6.998;2023-03-21T14:13:28;52.65;43.04;70.49;;
38366;Laerm;943;51.568;6.998;2023-03-21T14:16:16;50.31;42.31;70.48;;
38366;Laerm;943;51.568;6.998;2023-03-21T14:18:59;50.13;42.75;66.27;;
38366;Laerm;943;51.568;6.998;2023-03-21T14:21:35;53.75;41.99;69.92;;
38366;Laerm;943;51.568;6.998;2023-03-21T14:24:18;47.36;42.75;63.93;;
38366;Laerm;943;51.568;6.998;2023-03-21T14:26:54;49.50;42.65;62.57;;
38366;Laerm;943;51.568;6.998;2023-03-21T14:29:34;47.03;41.69;62.11;;
38366;Laerm;943;51.568;6.998;2023-03-21T14:32:04;45.87;42.82;53.98;;
38366;Laerm;943;51.568;6.998;2023-03-21T14:34:34;50.75;42.69;69.33;;
38366;Laerm;943;51.568;6.998;2023-03-21T14:37:10;51.90;42.60;68.79;;
38366;Laerm;943;51.568;6.998;2023-03-21T14:39:38;52.95;42.24;67.30;;
38366;Laerm;943;51.568;6.998;2023-03-21T14:42:14;51.33;42.10;74.38;;
38366;Laerm;943;51.568;6.998;2023-03-21T14:44:49;52.19;42.66;73.78;;
38366;Laerm;943;51.568;6.998;2023-03-21T14:47:29;71.22;43.77;91.14;;
38366;Laerm;943;51.568;6.998;2023-03-21T14:49:59;58.66;43.57;79.42;;
38366;Laerm;943;51.568;6.998;2023-03-21T14:52:33;64.90;44.67;87.18;;
38366;Laerm;943;51.568;6.998;2023-03-21T14:55:15;51.10;43.02;66.46;;
38366;Laerm;943;51.568;6.998;2023-03-21T14:57:43;60.07;43.33;85.02;;
38366;Laerm;943;51.568;6.998;2023-03-21T15:00:29;56.70;42.18;83.16;;
38366;Laerm;943;51.568;6.998;2023-03-21T15:02:59;69.49;43.14;88.93;;
38366;Laerm;943;51.568;6.998;2023-03-21T15:05:35;67.86;43.28;90.12;;
38366;Laerm;943;51.568;6.998;2023-03-21T15:08:20;53.18;43.26;71.56;;
38366;Laerm;943;51.568;6.998;2023-03-21T15:11:03;60.95;42.33;84.59;;
38366;Laerm;943;51.568;6.998;2023-03-21T15:13:49;52.45;41.79;74.58;;
38366;Laerm;943;51.568;6.998;2023-03-21T15:16:20;55.05;43.44;72.61;;
38366;Laerm;943;51.568;6.998;2023-03-21T15:18:50;51.94;41.21;69.10;;
38366;Laerm;943;51.568;6.998;2023-03-21T15:21:41;51.24;41.71;70.31;;
38366;Laerm;943;51.568;6.998;2023-03-21T15:24:26;47.29;41.39;65.25;;
38366;Laerm;943;51.568;6.998;2023-03-21T15:27:07;51.61;41.97;71.93;;
38366;Laerm;943;51.568;6.998;2023-03-21T15:29:39;54.12;41.66;73.98;;
38366;Laerm;943;51.568;6.998;2023-03-21T15:32:25;46.89;41.61;62.00;;
38366;Laerm;943;51.568;6.998;2023-03-21T15:35:11;46.96;42.24;61.14;;
38366;Laerm;943;51.568;6.998;2023-03-21T15:37:41;46.93;42.02;65.64;;
38366;Laerm;943;51.568;6.998;2023-03-21T15:40:27;53.32;42.85;68.11;;
38366;Laerm;943;51.568;6.998;2023-03-21T15:43:18;48.32;42.22;63.48;;
38366;Laerm;943;51.568;6.998;2023-03-21T15:45:52;46.91;43.13;60.02;;
38366;Laerm;943;51.568;6.998;2023-03-21T15:48:28;55.65;43.45;77.15;;
38366;Laerm;943;51.568;6.998;2023-03-21T15:51:13;56.41;43.37;81.82;;
38366;Laerm;943;51.568;6.998;2023-03-21T15:53:46;63.76;43.59;87.17;;
38366;Laerm;943;51.568;6.998;2023-03-21T15:56:14;54.83;43.53;76.13;;
38366;Laerm;943;51.568;6.998;2023-03-21T15:58:48;57.77;43.04;82.31;;
38366;Laerm;943;51.568;6.998;2023-03-21T16:01:21;50.28;43.60;66.01;;
38366;Laerm;943;51.568;6.998;2023-03-21T16:04:09;52.68;43.35;71.20;;
38366;Laerm;943;51.568;6.998;2023-03-21T16:07:02;48.26;42.74;68.01;;
38366;Laerm;943;51.568;6.998;2023-03-21T16:09:45;70.00;43.65;90.62;;
38366;Laerm;943;51.568;6.998;2023-03-21T16:12:14;72.61;43.14;92.18;;
38366;Laerm;943;51.568;6.998;2023-03-21T16:14:45;51.95;43.08;68.43;;
38366;Laerm;943;51.568;6.998;2023-03-21T16:17:34;50.00;43.23;68.93;;
38366;Laerm;943;51.568;6.998;2023-03-21T16:20:23;50.07;42.21;68.65;;
38366;Laerm;943;51.568;6.998;2023-03-21T16:22:52;56.76;43.17;72.17;;
38366;Laerm;943;51.568;6.998;2023-03-21T16:25:21;54.18;42.86;73.84;;
38366;Laerm;943;51.568;6.998;2023-03-21T16:27:49;46.49;41.45;60.39;;